createdAt,value
2024-05-09T00:00:38.781Z,490.00
2024-05-09T00:01:33.159Z,488.00
2024-05-09T00:02:32.161Z,486.00
2024-05-09T00:03:32.075Z,492.00
2024-05-09T00:04:32.087Z,495.00
2024-05-09T00:05:32.144Z,490.00
2024-05-09T00:06:31.992Z,499.00
2024-05-09T00:07:32.039Z,497.00
2024-05-09T00:08:32.131Z,497.00
2024-05-09T00:09:31.935Z,495.00
2024-05-09T00:10:36.181Z,494.00
2024-05-09T00:11:32.922Z,493.00
2024-05-09T00:12:31.861Z,505.00
2024-05-09T00:13:31.831Z,498.00
2024-05-09T00:14:31.996Z,495.00
2024-05-09T00:15:31.806Z,494.00
2024-05-09T00:16:31.813Z,496.00
2024-05-09T00:17:32.024Z,504.00
2024-05-09T00:18:31.858Z,504.00
2024-05-09T00:19:32.074Z,500.00
2024-05-09T00:20:38.025Z,497.00
2024-05-09T00:21:32.712Z,494.00
2024-05-09T00:22:31.689Z,498.00
2024-05-09T00:23:31.772Z,500.00
2024-05-09T00:24:31.644Z,496.00
2024-05-09T00:25:31.602Z,495.00
2024-05-09T00:26:31.649Z,499.00
2024-05-09T00:27:31.523Z,501.00
2024-05-09T00:28:31.471Z,501.00
2024-05-09T00:29:31.560Z,500.00
2024-05-09T00:30:35.268Z,498.00
2024-05-09T00:31:32.471Z,510.00
2024-05-09T00:32:31.590Z,500.00
2024-05-09T00:33:31.626Z,509.00
2024-05-09T00:34:31.603Z,510.00
2024-05-09T00:35:31.454Z,505.00
2024-05-09T00:36:31.315Z,506.00
2024-05-09T00:37:31.287Z,509.00
2024-05-09T00:38:31.358Z,512.00
2024-05-09T00:39:31.608Z,512.00
2024-05-09T00:40:38.580Z,510.00
2024-05-09T00:41:32.301Z,509.00
2024-05-09T00:42:31.203Z,508.00
2024-05-09T00:43:31.201Z,507.00
2024-05-09T00:44:31.281Z,516.00
2024-05-09T00:45:31.195Z,496.00
2024-05-09T00:46:31.212Z,500.00
2024-05-09T00:47:31.428Z,502.00
2024-05-09T00:48:31.333Z,498.00
2024-05-09T00:49:31.218Z,503.00
2024-05-09T00:50:36.184Z,500.00
2024-05-09T00:51:32.086Z,500.00
2024-05-09T00:52:31.101Z,500.00
2024-05-09T00:53:31.261Z,503.00
2024-05-09T00:54:31.087Z,503.00
2024-05-09T00:55:31.071Z,503.00
2024-05-09T00:56:31.061Z,502.00
2024-05-09T00:57:31.005Z,501.00
2024-05-09T00:58:30.975Z,501.00
2024-05-09T00:59:31.065Z,500.00
2024-05-09T01:00:37.942Z,502.00
2024-05-09T01:01:32.034Z,501.00
2024-05-09T01:02:31.024Z,502.00
2024-05-09T01:03:31.004Z,501.00
2024-05-09T01:04:30.927Z,500.00
2024-05-09T01:05:30.935Z,499.00
2024-05-09T01:06:30.904Z,496.00
2024-05-09T01:07:30.835Z,496.00
2024-05-09T01:08:31.014Z,495.00
2024-05-09T01:09:30.809Z,496.00
2024-05-09T01:10:34.818Z,499.00
2024-05-09T01:11:32.801Z,501.00
2024-05-09T01:12:30.879Z,505.00
2024-05-09T01:13:30.732Z,502.00
2024-05-09T01:14:30.815Z,502.00
2024-05-09T01:15:30.790Z,503.00
2024-05-09T01:16:30.699Z,505.00
2024-05-09T01:17:30.916Z,498.00
2024-05-09T01:18:30.787Z,498.00
2024-05-09T01:19:30.769Z,500.00
2024-05-09T01:20:39.938Z,499.00
2024-05-09T01:21:31.563Z,499.00
2024-05-09T01:22:30.563Z,499.00
2024-05-09T01:23:30.725Z,498.00
2024-05-09T01:24:30.550Z,499.00
2024-05-09T01:25:30.517Z,498.00
2024-05-09T01:26:30.599Z,507.00
2024-05-09T01:27:30.388Z,502.00
2024-05-09T01:28:30.414Z,503.00
2024-05-09T01:29:30.411Z,502.00
2024-05-09T01:30:34.917Z,499.00
2024-05-09T01:31:31.340Z,500.00
2024-05-09T01:32:30.522Z,501.00
2024-05-09T01:33:30.399Z,501.00
2024-05-09T01:34:30.233Z,501.00
2024-05-09T01:35:30.325Z,499.00
2024-05-09T01:36:30.139Z,501.00
2024-05-09T01:37:30.155Z,500.00
2024-05-09T01:38:30.298Z,497.00
2024-05-09T01:39:30.149Z,502.00
2024-05-09T01:40:37.173Z,503.00
2024-05-09T01:41:31.128Z,502.00
2024-05-09T01:42:30.040Z,493.00
2024-05-09T01:43:29.985Z,483.00
2024-05-09T01:44:30.041Z,486.00
2024-05-09T01:45:29.985Z,484.00
2024-05-09T01:46:29.927Z,482.00
2024-05-09T01:47:30.189Z,486.00
2024-05-09T01:48:30.055Z,492.00
2024-05-09T01:49:29.989Z,498.00
2024-05-09T01:50:37.996Z,496.00
2024-05-09T01:51:30.826Z,488.00
2024-05-09T01:52:29.823Z,486.00
2024-05-09T01:53:29.790Z,487.00
2024-05-09T01:54:29.752Z,491.00
2024-05-09T01:55:29.734Z,494.00
2024-05-09T01:56:29.763Z,498.00
2024-05-09T01:57:29.686Z,496.00
2024-05-09T01:58:29.662Z,501.00
2024-05-09T01:59:29.697Z,501.00
2024-05-09T02:00:38.270Z,498.00
2024-05-09T02:01:30.649Z,499.00
2024-05-09T02:02:30.645Z,498.00
2024-05-09T02:03:29.777Z,496.00
2024-05-09T02:04:29.624Z,518.00
2024-05-09T02:05:29.642Z,505.00
2024-05-09T02:06:29.445Z,499.00
2024-05-09T02:07:29.412Z,495.00
2024-05-09T02:08:29.389Z,499.00
2024-05-09T02:09:29.346Z,499.00
2024-05-09T02:11:29.418Z,508.00
2024-05-09T02:12:29.342Z,505.00
2024-05-09T02:13:29.257Z,505.00
2024-05-09T02:14:29.401Z,505.00
2024-05-09T02:15:29.205Z,505.00
2024-05-09T02:16:29.215Z,503.00
2024-05-09T02:17:29.315Z,501.00
2024-05-09T02:18:29.278Z,502.00
2024-05-09T02:19:29.279Z,504.00
2024-05-09T02:20:34.156Z,501.00
2024-05-09T02:21:30.127Z,501.00
2024-05-09T02:22:29.115Z,499.00
2024-05-09T02:23:29.189Z,495.00
2024-05-09T02:24:29.008Z,489.00
2024-05-09T02:25:29.038Z,497.00
2024-05-09T02:26:29.054Z,503.00
2024-05-09T02:27:28.938Z,500.00
2024-05-09T02:28:28.944Z,494.00
2024-05-09T02:29:29.010Z,492.00
2024-05-09T02:31:28.874Z,499.00
2024-05-09T02:32:29.071Z,500.00
2024-05-09T02:33:28.931Z,499.00
2024-05-09T02:34:28.819Z,500.00
2024-05-09T02:35:28.946Z,501.00
2024-05-09T02:36:28.791Z,501.00
2024-05-09T02:37:28.704Z,502.00
2024-05-09T02:38:28.742Z,502.00
2024-05-09T02:39:28.617Z,503.00
2024-05-09T02:40:36.060Z,502.00
2024-05-09T02:41:29.748Z,500.00
2024-05-09T02:42:28.602Z,500.00
2024-05-09T02:43:28.524Z,500.00
2024-05-09T02:44:28.659Z,501.00
2024-05-09T02:45:28.498Z,500.00
2024-05-09T02:46:28.495Z,499.00
2024-05-09T02:47:28.745Z,501.00
2024-05-09T02:48:28.543Z,497.00
2024-05-09T02:49:28.760Z,503.00
2024-05-09T02:50:34.629Z,498.00
2024-05-09T02:51:29.483Z,496.00
2024-05-09T02:52:28.435Z,490.00
2024-05-09T02:53:28.427Z,488.00
2024-05-09T02:54:28.421Z,483.00
2024-05-09T02:55:28.383Z,498.00
2024-05-09T02:56:28.423Z,498.00
2024-05-09T02:57:28.335Z,494.00
2024-05-09T02:58:28.321Z,501.00
2024-05-09T02:59:28.548Z,496.00
2024-05-09T03:00:35.290Z,499.00
2024-05-09T03:01:29.306Z,499.00
2024-05-09T03:02:28.404Z,493.00
2024-05-09T03:03:28.465Z,492.00
2024-05-09T03:04:28.279Z,494.00
2024-05-09T03:05:28.230Z,494.00
2024-05-09T03:06:28.168Z,494.00
2024-05-09T03:07:28.185Z,489.00
2024-05-09T03:08:28.208Z,489.00
2024-05-09T03:09:28.114Z,488.00
2024-05-09T03:11:28.236Z,490.00
2024-05-09T03:12:28.176Z,487.00
2024-05-09T03:13:28.012Z,488.00
2024-05-09T03:14:28.025Z,488.00
2024-05-09T03:15:27.969Z,491.00
2024-05-09T03:16:27.983Z,489.00
2024-05-09T03:17:28.111Z,493.00
2024-05-09T03:18:28.070Z,495.00
2024-05-09T03:19:28.073Z,494.00
2024-05-09T03:20:33.405Z,492.00
2024-05-09T03:21:28.927Z,493.00
2024-05-09T03:22:27.918Z,511.00
2024-05-09T03:23:27.900Z,504.00
2024-05-09T03:24:27.826Z,494.00
2024-05-09T03:25:27.820Z,489.00
2024-05-09T03:26:27.866Z,497.00
2024-05-09T03:27:27.809Z,491.00
2024-05-09T03:28:27.747Z,496.00
2024-05-09T03:29:27.770Z,499.00
2024-05-09T03:30:36.045Z,500.00
2024-05-09T03:31:28.719Z,495.00
2024-05-09T03:32:27.833Z,492.00
2024-05-09T03:33:27.852Z,492.00
2024-05-09T03:34:27.657Z,494.00
2024-05-09T03:35:27.789Z,495.00
2024-05-09T03:36:27.646Z,493.00
2024-05-09T03:37:27.668Z,499.00
2024-05-09T03:38:27.637Z,498.00
2024-05-09T03:39:27.585Z,496.00
2024-05-09T03:40:30.823Z,498.00
2024-05-09T03:41:27.499Z,495.00
2024-05-09T03:42:27.642Z,498.00
2024-05-09T03:43:27.492Z,498.00
2024-05-09T03:44:27.527Z,501.00
2024-05-09T03:45:27.508Z,502.00
2024-05-09T03:46:27.381Z,502.00
2024-05-09T03:47:27.558Z,497.00
2024-05-09T03:48:27.540Z,499.00
2024-05-09T03:49:27.465Z,501.00
2024-05-09T03:50:33.689Z,501.00
2024-05-09T03:51:28.278Z,500.00
2024-05-09T03:52:27.362Z,502.00
2024-05-09T03:53:27.303Z,505.00
2024-05-09T03:54:27.284Z,504.00
2024-05-09T03:55:27.222Z,501.00
2024-05-09T03:56:27.260Z,500.00
2024-05-09T03:57:27.231Z,506.00
2024-05-09T03:58:27.201Z,509.00
2024-05-09T03:59:27.322Z,498.00
2024-05-09T04:00:35.197Z,497.00
2024-05-09T04:01:28.301Z,498.00
2024-05-09T04:02:27.213Z,510.00
2024-05-09T04:03:27.369Z,506.00
2024-05-09T04:04:27.181Z,504.00
2024-05-09T04:05:27.166Z,506.00
2024-05-09T04:06:27.050Z,496.00
2024-05-09T04:07:27.053Z,502.00
2024-05-09T04:08:27.199Z,507.00
2024-05-09T04:09:27.052Z,502.00
2024-05-09T04:10:31.299Z,501.00
2024-05-09T04:11:28.053Z,507.00
2024-05-09T04:12:27.064Z,491.00
2024-05-09T04:13:26.988Z,484.00
2024-05-09T04:14:27.522Z,496.00
2024-05-09T04:15:26.966Z,494.00
2024-05-09T04:16:27.013Z,499.00
2024-05-09T04:17:27.211Z,495.00
2024-05-09T04:18:27.021Z,495.00
2024-05-09T04:19:27.207Z,494.00
2024-05-09T04:20:37.247Z,508.00
2024-05-09T04:21:27.912Z,497.00
2024-05-09T04:22:26.885Z,502.00
2024-05-09T04:23:26.959Z,494.00
2024-05-09T04:24:26.867Z,499.00
2024-05-09T04:25:26.857Z,502.00
2024-05-09T04:26:26.838Z,498.00
2024-05-09T04:27:27.533Z,496.00
2024-05-09T04:28:26.793Z,499.00
2024-05-09T04:29:26.847Z,497.00
2024-05-09T04:30:34.979Z,498.00
2024-05-09T04:31:27.733Z,493.00
2024-05-09T04:32:26.794Z,494.00
2024-05-09T04:33:26.896Z,493.00
2024-05-09T04:34:26.708Z,494.00
2024-05-09T04:35:26.735Z,495.00
2024-05-09T04:36:26.589Z,494.00
2024-05-09T04:37:26.653Z,495.00
2024-05-09T04:38:26.632Z,496.00
2024-05-09T04:39:26.660Z,495.00
2024-05-09T04:40:33.132Z,494.00
2024-05-09T04:41:27.641Z,493.00
2024-05-09T04:42:26.586Z,498.00
2024-05-09T04:43:26.570Z,498.00
2024-05-09T04:44:26.682Z,490.00
2024-05-09T04:45:27.322Z,501.00
2024-05-09T04:46:26.505Z,494.00
2024-05-09T04:47:26.679Z,489.00
2024-05-09T04:48:26.720Z,490.00
2024-05-09T04:49:26.580Z,487.00
2024-05-09T04:50:35.408Z,486.00
2024-05-09T04:51:27.396Z,478.00
2024-05-09T04:52:26.440Z,496.00
2024-05-09T04:53:26.496Z,494.00
2024-05-09T04:54:34.118Z,506.00
2024-05-09T04:55:27.480Z,500.00
2024-05-09T04:56:26.430Z,500.00
2024-05-09T04:57:26.389Z,495.00
2024-05-09T04:58:26.337Z,480.00
2024-05-09T04:59:26.347Z,507.00
2024-05-09T05:00:34.473Z,496.00
2024-05-09T05:02:49.258Z,489.00
2024-05-09T05:03:26.347Z,488.00
2024-05-09T05:04:26.281Z,488.00
2024-05-09T05:05:26.223Z,490.00
2024-05-09T05:06:33.888Z,513.00
2024-05-09T05:07:33.901Z,503.00
2024-05-09T05:08:34.062Z,504.00
2024-05-09T05:09:33.916Z,503.00
2024-05-09T05:10:36.457Z,502.00
2024-05-09T05:11:33.979Z,503.00
2024-05-09T05:12:33.929Z,504.00
2024-05-09T05:13:33.786Z,500.00
2024-05-09T05:14:33.887Z,500.00
2024-05-09T05:15:33.768Z,503.00
2024-05-09T05:16:33.765Z,505.00
2024-05-09T05:17:34.007Z,506.00
2024-05-09T05:18:33.837Z,509.00
2024-05-09T05:19:34.013Z,509.00
2024-05-09T05:20:34.393Z,511.00
2024-05-09T05:21:33.755Z,513.00
2024-05-09T05:22:33.786Z,514.00
2024-05-09T05:23:33.828Z,515.00
2024-05-09T05:24:33.707Z,513.00
2024-05-09T05:25:33.699Z,510.00
2024-05-09T05:26:33.841Z,509.00
2024-05-09T05:27:33.686Z,509.00
2024-05-09T05:28:33.692Z,510.00
2024-05-09T05:29:33.771Z,508.00
2024-05-09T05:30:34.990Z,509.00
2024-05-09T05:31:33.688Z,512.00
2024-05-09T05:32:33.794Z,511.00
2024-05-09T05:33:33.748Z,510.00
2024-05-09T05:34:33.657Z,511.00
2024-05-09T05:35:33.950Z,512.00
2024-05-09T05:36:33.612Z,510.00
2024-05-09T05:37:33.639Z,509.00
2024-05-09T05:38:33.627Z,508.00
2024-05-09T05:39:33.590Z,511.00
2024-05-09T05:40:36.994Z,513.00
2024-05-09T05:41:33.637Z,502.00
2024-05-09T05:42:33.530Z,515.00
2024-05-09T05:43:33.484Z,508.00
2024-05-09T05:44:33.549Z,509.00
2024-05-09T05:45:33.424Z,507.00
2024-05-09T05:46:59.092Z,505.00
2024-05-09T05:47:33.696Z,505.00
2024-05-09T05:48:33.578Z,510.00
2024-05-09T05:49:33.623Z,507.00
2024-05-09T05:50:36.527Z,509.00
2024-05-09T05:51:33.407Z,513.00
2024-05-09T05:52:33.459Z,511.00
2024-05-09T05:53:33.742Z,512.00
2024-05-09T05:54:33.454Z,510.00
2024-05-09T05:55:33.385Z,509.00
2024-05-09T05:56:33.440Z,510.00
2024-05-09T05:57:33.346Z,507.00
2024-05-09T05:58:33.389Z,506.00
2024-05-09T05:59:33.402Z,509.00
2024-05-09T06:00:38.014Z,506.00
2024-05-09T06:01:34.301Z,505.00
2024-05-09T06:02:33.338Z,502.00
2024-05-09T06:03:33.345Z,500.00
2024-05-09T06:04:33.172Z,501.00
2024-05-09T06:05:33.408Z,499.00
2024-05-09T06:06:33.125Z,492.00
2024-05-09T06:07:33.205Z,501.00
2024-05-09T06:08:34.415Z,500.00
2024-05-09T06:09:33.067Z,489.00
2024-05-09T06:10:38.341Z,498.00
2024-05-09T06:11:34.142Z,500.00
2024-05-09T06:12:33.041Z,500.00
2024-05-09T06:13:33.049Z,500.00
2024-05-09T06:14:33.110Z,499.00
2024-05-09T06:15:33.019Z,497.00
2024-05-09T06:16:32.931Z,498.00
2024-05-09T06:17:33.200Z,497.00
2024-05-09T06:18:33.056Z,496.00
2024-05-09T06:19:33.215Z,495.00
2024-05-09T06:20:36.406Z,494.00
2024-05-09T06:21:33.893Z,493.00
2024-05-09T06:22:32.850Z,505.00
2024-05-09T06:23:32.978Z,498.00
2024-05-09T06:24:32.763Z,494.00
2024-05-09T06:25:32.783Z,504.00
2024-05-09T06:26:32.889Z,499.00
2024-05-09T06:27:32.758Z,501.00
2024-05-09T06:28:33.315Z,497.00
2024-05-09T06:29:32.724Z,491.00
2024-05-09T06:30:38.429Z,493.00
2024-05-09T06:31:33.606Z,507.00
2024-05-09T06:32:32.663Z,498.00
2024-05-09T06:33:32.952Z,501.00
2024-05-09T06:34:32.577Z,499.00
2024-05-09T06:35:32.699Z,508.00
2024-05-09T06:36:32.436Z,507.00
2024-05-09T06:37:32.442Z,501.00
2024-05-09T06:38:32.491Z,496.00
2024-05-09T06:39:32.403Z,492.00
2024-05-09T06:40:37.474Z,491.00
2024-05-09T06:41:33.464Z,491.00
2024-05-09T06:42:32.363Z,492.00
2024-05-09T06:43:32.329Z,494.00
2024-05-09T06:44:32.349Z,494.00
2024-05-09T06:45:32.351Z,492.00
2024-05-09T06:46:32.207Z,544.00
2024-05-09T06:47:32.397Z,503.00
2024-05-09T06:48:32.294Z,496.00
2024-05-09T06:49:32.178Z,493.00
2024-05-09T06:50:37.455Z,482.00
2024-05-09T06:51:33.049Z,495.00
2024-05-09T06:52:32.042Z,495.00
2024-05-09T06:53:32.114Z,491.00
2024-05-09T06:54:31.940Z,489.00
2024-05-09T06:55:32.045Z,492.00
2024-05-09T06:56:31.974Z,492.00
2024-05-09T06:57:31.870Z,490.00
2024-05-09T06:58:31.845Z,487.00
2024-05-09T06:59:32.009Z,488.00
2024-05-09T07:00:38.581Z,488.00
2024-05-09T07:01:32.961Z,464.00
2024-05-09T07:02:31.975Z,504.00
2024-05-09T07:03:32.014Z,475.00
2024-05-09T07:04:31.909Z,486.00
2024-05-09T07:05:31.923Z,504.00
2024-05-09T07:06:31.734Z,475.00
2024-05-09T07:07:31.733Z,487.00
2024-05-09T07:08:31.931Z,477.00
2024-05-09T07:09:31.649Z,487.00
2024-05-09T07:10:35.169Z,479.00
2024-05-09T07:11:31.797Z,496.00
2024-05-09T07:12:31.664Z,492.00
2024-05-09T07:13:31.578Z,489.00
2024-05-09T07:14:32.762Z,488.00
2024-05-09T07:15:31.601Z,491.00
2024-05-09T07:16:31.492Z,479.00
2024-05-09T07:17:31.866Z,491.00
2024-05-09T07:18:31.712Z,484.00
2024-05-09T07:19:31.513Z,492.00
2024-05-09T07:20:34.660Z,488.00
2024-05-09T07:21:31.409Z,489.00
2024-05-09T07:22:31.393Z,487.00
2024-05-09T07:23:31.457Z,488.00
2024-05-09T07:24:31.261Z,485.00
2024-05-09T07:25:31.486Z,487.00
2024-05-09T07:26:31.321Z,488.00
2024-05-09T07:27:31.254Z,485.00
2024-05-09T07:28:31.307Z,485.00
2024-05-09T07:29:32.188Z,485.00
2024-05-09T07:30:34.266Z,484.00
2024-05-09T07:31:31.187Z,484.00
2024-05-09T07:32:31.354Z,484.00
2024-05-09T07:33:31.352Z,485.00
2024-05-09T07:34:31.216Z,510.00
2024-05-09T07:35:31.445Z,492.00
2024-05-09T07:36:31.018Z,479.00
2024-05-09T07:37:30.919Z,479.00
2024-05-09T07:38:30.958Z,482.00
2024-05-09T07:39:30.833Z,480.00
2024-05-09T07:40:35.695Z,483.00
2024-05-09T07:41:31.878Z,481.00
2024-05-09T07:42:30.661Z,479.00
2024-05-09T07:43:30.644Z,478.00
2024-05-09T07:44:30.811Z,476.00
2024-05-09T07:45:47.414Z,482.00
2024-05-09T07:47:37.092Z,482.00
2024-05-09T07:48:57.357Z,463.00
2024-05-09T07:50:01.266Z,505.00
2024-05-09T07:53:08.169Z,474.00
2024-05-09T07:53:32.671Z,483.00
2024-05-09T07:53:40.549Z,479.00
2024-05-09T07:54:31.191Z,483.00
2024-05-09T07:55:31.466Z,479.00
2024-05-09T07:56:30.539Z,487.00
2024-05-09T07:57:30.013Z,479.00
2024-05-09T07:58:30.044Z,497.00
2024-05-09T07:59:30.840Z,497.00
2024-05-09T08:00:31.818Z,491.00
2024-05-09T08:01:30.063Z,486.00
2024-05-09T08:02:30.128Z,480.00
2024-05-09T08:03:30.096Z,476.00
2024-05-09T08:04:30.106Z,484.00
2024-05-09T08:05:30.164Z,490.00
2024-05-09T08:06:29.930Z,475.00
2024-05-09T08:07:29.906Z,501.00
2024-05-09T08:08:29.910Z,490.00
2024-05-09T08:09:29.842Z,487.00
2024-05-09T08:10:29.936Z,488.00
2024-05-09T08:11:29.964Z,484.00
2024-05-09T08:12:29.847Z,486.00
2024-05-09T08:13:29.832Z,489.00
2024-05-09T08:14:29.738Z,488.00
2024-05-09T08:15:29.837Z,484.00
2024-05-09T08:16:29.846Z,488.00
2024-05-09T08:17:29.816Z,487.00
2024-05-09T08:18:29.973Z,487.00
2024-05-09T08:19:29.811Z,494.00
2024-05-09T08:20:33.677Z,490.00
2024-05-09T08:21:30.750Z,493.00
2024-05-09T08:22:29.595Z,451.00
2024-05-09T08:23:29.600Z,498.00
2024-05-09T08:24:29.532Z,488.00
2024-05-09T08:25:29.417Z,491.00
2024-05-09T08:26:29.407Z,489.00
2024-05-09T08:27:29.369Z,499.00
2024-05-09T08:28:29.399Z,497.00
2024-05-09T08:29:29.547Z,487.00
2024-05-09T08:30:33.899Z,495.00
2024-05-09T08:31:30.364Z,491.00
2024-05-09T08:32:29.239Z,484.00
2024-05-09T08:33:29.294Z,500.00
2024-05-09T08:34:29.147Z,478.00
2024-05-09T08:35:28.974Z,489.00
2024-05-09T08:36:28.977Z,502.00
2024-05-09T08:37:32.843Z,488.00
2024-05-09T08:38:29.710Z,482.00
2024-05-09T08:39:28.808Z,481.00
2024-05-09T08:40:34.416Z,483.00
2024-05-09T08:41:29.521Z,476.00
2024-05-09T08:42:28.576Z,484.00
2024-05-09T08:43:28.435Z,489.00
2024-05-09T08:44:28.456Z,485.00
2024-05-09T08:45:28.474Z,488.00
2024-05-09T08:46:28.446Z,513.00
2024-05-09T08:47:28.363Z,490.00
2024-05-09T08:48:28.162Z,487.00
2024-05-09T08:49:27.994Z,497.00
2024-05-09T08:50:36.172Z,485.00
2024-05-09T08:51:28.828Z,480.00
2024-05-09T08:52:27.763Z,483.00
2024-05-09T08:53:27.556Z,478.00
2024-05-09T08:54:27.687Z,471.00
2024-05-09T08:55:27.469Z,475.00
2024-05-09T08:56:27.371Z,477.00
2024-05-09T08:57:27.382Z,481.00
2024-05-09T08:58:27.373Z,478.00
2024-05-09T08:59:27.283Z,454.00
2024-05-09T09:00:34.149Z,484.00
2024-05-09T09:01:28.368Z,477.00
2024-05-09T09:02:27.197Z,487.00
2024-05-09T09:03:27.187Z,480.00
2024-05-09T09:04:28.616Z,480.00
2024-05-09T09:05:26.925Z,483.00
2024-05-09T09:06:26.971Z,484.00
2024-05-09T09:07:26.651Z,486.00
2024-05-09T09:08:26.630Z,483.00
2024-05-09T09:09:26.641Z,488.00
2024-05-09T09:10:31.808Z,485.00
2024-05-09T09:11:27.413Z,485.00
2024-05-09T09:12:26.346Z,477.00
2024-05-09T09:13:26.357Z,483.00
2024-05-09T09:14:27.282Z,471.00
2024-05-09T09:15:26.146Z,477.00
2024-05-09T09:16:26.209Z,483.00
2024-05-09T09:17:26.045Z,478.00
2024-05-09T09:18:25.978Z,481.00
2024-05-09T09:19:26.099Z,534.00
2024-05-09T09:20:33.307Z,481.00
2024-05-09T09:21:26.841Z,480.00
2024-05-09T09:22:25.699Z,478.00
2024-05-09T09:23:25.602Z,479.00
2024-05-09T09:24:25.607Z,485.00
2024-05-09T09:25:25.523Z,482.00
2024-05-09T09:26:25.427Z,479.00
2024-05-09T09:27:25.320Z,480.00
2024-05-09T09:28:25.230Z,472.00
2024-05-09T09:29:25.220Z,473.00
2024-05-09T09:30:34.704Z,470.00
2024-05-09T09:31:26.208Z,480.00
2024-05-09T09:32:25.032Z,479.00
2024-05-09T09:33:24.981Z,482.00
2024-05-09T09:34:24.972Z,462.00
2024-05-09T09:35:24.850Z,474.00
2024-05-09T09:36:24.672Z,466.00
2024-05-09T09:37:25.306Z,491.00
2024-05-09T09:38:24.492Z,485.00
2024-05-09T09:39:24.486Z,481.00
2024-05-09T09:40:29.279Z,480.00
2024-05-09T09:41:26.250Z,488.00
2024-05-09T09:42:24.185Z,479.00
2024-05-09T09:43:24.166Z,483.00
2024-05-09T09:44:24.110Z,483.00
2024-05-09T09:45:23.967Z,493.00
2024-05-09T09:46:24.150Z,490.00
2024-05-09T09:47:23.952Z,489.00
2024-05-09T09:48:23.968Z,548.00
2024-05-09T09:49:23.876Z,476.00
2024-05-09T09:50:31.565Z,475.00
2024-05-09T09:51:24.663Z,477.00
2024-05-09T09:52:23.614Z,475.00
2024-05-09T09:53:23.402Z,489.00
2024-05-09T09:54:23.362Z,479.00
2024-05-09T09:55:23.368Z,479.00
2024-05-09T09:57:17.800Z,504.00
2024-05-09T09:58:17.955Z,494.00
2024-05-09T09:59:17.808Z,472.00
2024-05-09T10:00:24.445Z,484.00
2024-05-09T10:01:18.871Z,483.00
2024-05-09T10:02:17.982Z,481.00
2024-05-09T10:03:17.872Z,483.00
2024-05-09T10:04:18.036Z,490.00
2024-05-09T10:05:17.873Z,518.00
2024-05-09T10:06:17.790Z,492.00
2024-05-09T10:07:17.840Z,485.00
2024-05-09T10:08:17.884Z,479.00
2024-05-09T10:09:17.817Z,480.00
2024-05-09T10:10:26.502Z,519.00
2024-05-09T10:11:18.736Z,480.00
2024-05-09T10:12:17.780Z,473.00
2024-05-09T10:13:17.724Z,485.00
2024-05-09T10:14:17.744Z,480.00
2024-05-09T10:15:17.724Z,484.00
2024-05-09T10:16:17.895Z,480.00
2024-05-09T10:17:17.800Z,498.00
2024-05-09T10:18:17.858Z,490.00
2024-05-09T10:19:17.833Z,508.00
2024-05-09T10:20:21.979Z,492.00
2024-05-09T10:21:18.814Z,489.00
2024-05-09T10:22:17.857Z,471.00
2024-05-09T10:23:17.772Z,493.00
2024-05-09T10:24:17.801Z,496.00
2024-05-09T10:25:17.997Z,488.00
2024-05-09T10:26:17.810Z,483.00
2024-05-09T10:27:17.826Z,481.00
2024-05-09T10:28:17.881Z,487.00
2024-05-09T10:29:17.840Z,608.00
2024-05-09T10:30:25.834Z,477.00
2024-05-09T10:31:18.961Z,479.00
2024-05-09T10:32:17.942Z,477.00
2024-05-09T10:33:17.959Z,473.00
2024-05-09T10:34:18.043Z,478.00
2024-05-09T10:35:17.880Z,479.00
2024-05-09T10:36:17.886Z,481.00
2024-05-09T10:37:17.814Z,459.00
2024-05-09T10:38:17.780Z,467.00
2024-05-09T10:39:17.783Z,484.00
2024-05-09T10:40:25.767Z,474.00
2024-05-09T10:41:18.759Z,481.00
2024-05-09T10:42:17.821Z,478.00
2024-05-09T10:43:17.976Z,482.00
2024-05-09T10:44:17.755Z,481.00
2024-05-09T10:45:17.949Z,481.00
2024-05-09T10:46:17.919Z,473.00
2024-05-09T10:47:17.845Z,477.00
2024-05-09T10:48:17.873Z,475.00
2024-05-09T10:49:17.980Z,478.00
2024-05-09T10:50:25.318Z,479.00
2024-05-09T10:51:18.806Z,472.00
2024-05-09T10:52:17.871Z,478.00
2024-05-09T10:53:17.795Z,472.00
2024-05-09T10:54:17.809Z,470.00
2024-05-09T10:55:17.874Z,471.00
2024-05-09T10:56:17.718Z,519.00
2024-05-09T10:57:17.736Z,471.00
2024-05-09T10:58:17.836Z,467.00
2024-05-09T10:59:17.645Z,470.00
2024-05-09T11:00:27.197Z,474.00
2024-05-09T11:01:18.654Z,466.00
2024-05-09T11:02:17.660Z,470.00
2024-05-09T11:03:17.566Z,467.00
2024-05-09T11:04:17.589Z,478.00
2024-05-09T11:05:17.734Z,472.00
2024-05-09T11:06:17.407Z,469.00
2024-05-09T11:07:17.464Z,465.00
2024-05-09T11:08:17.393Z,466.00
2024-05-09T11:09:17.407Z,468.00
2024-05-09T11:10:24.888Z,493.00
2024-05-09T11:11:18.475Z,477.00
2024-05-09T11:12:17.953Z,470.00
2024-05-09T11:13:17.465Z,463.00
2024-05-09T11:14:17.423Z,479.00
2024-05-09T11:15:17.475Z,516.00
2024-05-09T11:16:17.676Z,468.00
2024-05-09T11:17:17.395Z,469.00
2024-05-09T11:18:17.801Z,467.00
2024-05-09T11:19:17.570Z,472.00
2024-05-09T11:20:26.739Z,490.00
2024-05-09T11:21:18.311Z,466.00
2024-05-09T11:22:17.323Z,464.00
2024-05-09T11:23:17.215Z,466.00
2024-05-09T11:24:17.195Z,467.00
2024-05-09T11:25:17.207Z,463.00
2024-05-09T11:26:17.005Z,464.00
2024-05-09T11:27:17.020Z,463.00
2024-05-09T11:28:17.081Z,520.00
2024-05-09T11:29:19.516Z,460.00
2024-05-09T11:30:24.185Z,471.00
2024-05-09T11:31:18.076Z,467.00
2024-05-09T11:32:16.864Z,458.00
2024-05-09T11:33:16.794Z,465.00
2024-05-09T11:34:17.136Z,477.00
2024-05-09T11:35:16.886Z,462.00
2024-05-09T11:36:16.774Z,464.00
2024-05-09T11:37:16.807Z,461.00
2024-05-09T11:38:16.677Z,486.00
2024-05-09T11:39:16.678Z,469.00
2024-05-09T11:40:24.353Z,463.00
2024-05-09T11:41:17.661Z,447.00
2024-05-09T11:42:16.714Z,460.00
2024-05-09T11:43:16.865Z,457.00
2024-05-09T11:44:16.618Z,456.00
2024-05-09T11:45:16.760Z,473.00
2024-05-09T11:46:16.934Z,465.00
2024-05-09T11:47:16.693Z,460.00
2024-05-09T11:48:16.836Z,490.00
2024-05-09T11:49:16.894Z,474.00
2024-05-09T11:50:26.650Z,472.00
2024-05-09T11:51:17.610Z,467.00
2024-05-09T11:52:16.825Z,489.00
2024-05-09T11:53:16.616Z,451.00
2024-05-09T11:54:16.501Z,470.00
2024-05-09T11:55:16.703Z,486.00
2024-05-09T11:56:16.496Z,468.00
2024-05-09T11:57:16.533Z,465.00
2024-05-09T11:58:16.576Z,462.00
2024-05-09T11:59:16.540Z,461.00
2024-05-09T12:00:24.552Z,463.00
2024-05-09T12:01:17.414Z,456.00
2024-05-09T12:02:16.861Z,453.00
2024-05-09T12:03:16.536Z,458.00
2024-05-09T12:04:16.555Z,469.00
2024-05-09T12:05:16.579Z,461.00
2024-05-09T12:06:16.282Z,460.00
2024-05-09T12:07:16.222Z,476.00
2024-05-09T12:08:16.114Z,460.00
2024-05-09T12:09:16.162Z,487.00
2024-05-09T12:10:19.840Z,469.00
2024-05-09T12:11:17.192Z,461.00
2024-05-09T12:12:16.189Z,459.00
2024-05-09T12:13:16.143Z,461.00
2024-05-09T12:14:16.110Z,467.00
2024-05-09T12:15:17.041Z,455.00
2024-05-09T12:16:16.239Z,467.00
2024-05-09T12:17:16.037Z,495.00
2024-05-09T12:18:15.995Z,462.00
2024-05-09T12:19:16.044Z,464.00
2024-05-09T12:20:21.569Z,461.00
2024-05-09T12:21:16.889Z,469.00
2024-05-09T12:22:16.025Z,461.00
2024-05-09T12:23:15.865Z,494.00
2024-05-09T12:24:18.238Z,463.00
2024-05-09T12:25:15.973Z,468.00
2024-05-09T12:26:15.813Z,469.00
2024-05-09T12:27:15.799Z,466.00
2024-05-09T12:28:15.883Z,508.00
2024-05-09T12:29:15.642Z,470.00
2024-05-09T12:30:24.661Z,477.00
2024-05-09T12:31:16.623Z,476.00
2024-05-09T12:32:15.593Z,478.00
2024-05-09T12:33:15.622Z,477.00
2024-05-09T12:34:15.674Z,476.00
2024-05-09T12:35:15.597Z,470.00